Airfield :
LOGIN :

Register | Disclaimer

   EN    FR    IT 

 










Legend :    VFR   Marginal VFR   IFR   Intensive IFR   Very Intensive IFR
Visi :
Ceiling :
>= 8 km
>= 3000ft
5 to 8 km
1000 to 3000 ft
1500m to 5 km
500 to 1000 ft
800 to 1500m
200 to 500 ft
< 800m
< 200 ft
Symbols :   Thunderstorms  Fog  Heavy snow  Heavy precipitations  Wind > 20 kt
SIGMETs :     Misc.  Thunderstorms  Icing  Turbulence  Mountain Waves  Volcanic Ashes







- Airport Elevation : 502 ft
- IATA code : ORK


EICK - Cork

CURRENT METAR :
  • 270630Z 28011KT 9999 FEW016 11/07 Q1014 NOSIG

EXPIRED METARs :
  • 270600Z 27010KT 9999 FEW021 11/07 Q1014 NOSIG
  • 270530Z 27009KT 9999 FEW021 10/07 Q1014 NOSIG
  • 270500Z 27012KT 9999 FEW021 10/07 Q1014 NOSIG
  • 270430Z 26007KT 9999 FEW021 09/07 Q1014 NOSIG
  • 270400Z 26007KT 9999 FEW021 09/07 Q1013 NOSIG

TAF TAF EICK
Valid from the 27 at 06:00 until the 28 at 06:00 UTC


270500Z 2706/2806 26012KT 9999 FEW020
PROB30
TEMPO 2706/2709 -SHRA BKN014
TEMPO 2709/2721 29015G25KT -SHRA SCT020CB
No reported NOTAMs for that airfield.



MET'MAP, your aeronautical weather chart ! - Copyright ORBIFLY December 2007 - Disclaimer

ORBIFLY MET'MAP TEAM :

Programming & Development : Alexandra Zaïnal
Concept & Development : Baudouin d'Aumeries
Co-Development & Prog : Marc-Olivier Méhu
Technical & hardware support : Manuel Goepfert

Contact : metmap@orbifly.com




SOURCES & CREDITS :

   NOAA